createdAt,value
2023-02-28T00:01:28.128Z,59.15
2023-02-28T00:03:55.567Z,56.40
2023-02-28T00:06:22.918Z,55.20
2023-02-28T00:08:51.849Z,54.25
2023-02-28T00:11:19.353Z,56.35
2023-02-28T00:13:47.937Z,49.35
2023-02-28T00:16:17.042Z,40.13
2023-02-28T00:18:45.835Z,43.03
2023-02-28T00:21:15.047Z,47.03
2023-02-28T00:23:42.558Z,48.45
2023-02-28T00:26:09.893Z,52.38
2023-02-28T00:28:38.347Z,53.35
2023-02-28T00:31:06.154Z,49.63
2023-02-28T00:33:35.514Z,48.70
2023-02-28T00:36:11.052Z,55.53
2023-02-28T00:38:39.756Z,45.75
2023-02-28T00:41:08.131Z,51.40
2023-02-28T00:43:38.917Z,51.03
2023-02-28T00:46:06.738Z,44.05
2023-02-28T00:48:34.316Z,48.13
2023-02-28T00:51:02.036Z,42.78
2023-02-28T00:53:29.578Z,41.90
2023-02-28T00:55:57.448Z,42.50
2023-02-28T00:58:24.664Z,40.15
2023-02-28T01:00:52.886Z,40.97
2023-02-28T01:03:20.703Z,41.50
2023-02-28T01:05:48.552Z,46.10
2023-02-28T01:08:17.275Z,54.15
2023-02-28T01:10:45.159Z,61.03
2023-02-28T01:13:13.118Z,47.90
2023-02-28T01:15:42.792Z,44.42
2023-02-28T01:18:10.275Z,45.83
2023-02-28T01:20:41.428Z,48.30
2023-02-28T01:23:08.837Z,50.53
2023-02-28T01:25:37.808Z,47.88
2023-02-28T01:28:05.483Z,53.97
2023-02-28T01:30:33.290Z,45.63
2023-02-28T01:33:00.549Z,46.55
2023-02-28T01:35:29.347Z,47.92
2023-02-28T01:38:01.000Z,47.08
2023-02-28T01:40:32.413Z,37.65
2023-02-28T01:43:00.036Z,40.67
2023-02-28T01:45:31.207Z,38.67
2023-02-28T01:48:06.113Z,42.30
2023-02-28T01:50:36.846Z,39.40
2023-02-28T01:55:32.331Z,35.42
2023-02-28T01:58:03.228Z,34.63
2023-02-28T02:00:35.235Z,33.28
2023-02-28T02:03:10.624Z,34.17
2023-02-28T02:05:38.878Z,32.53
2023-02-28T02:08:07.565Z,32.42
2023-02-28T02:10:42.805Z,32.85
2023-02-28T02:13:36.082Z,35.63
2023-02-28T02:16:18.743Z,32.95
2023-02-28T02:18:51.673Z,32.38
2023-02-28T02:21:22.052Z,35.53
2023-02-28T02:24:05.209Z,33.40
2023-02-28T02:26:52.121Z,33.30
2023-02-28T02:29:22.274Z,34.33
2023-02-28T02:31:53.405Z,33.83
2023-02-28T02:34:33.901Z,32.53
2023-02-28T02:37:07.229Z,36.85
2023-02-28T02:39:54.754Z,33.25
2023-02-28T02:42:26.106Z,35.83
2023-02-28T02:44:57.318Z,30.50
2023-02-28T02:47:26.229Z,33.80
2023-02-28T02:49:57.460Z,35.70
2023-02-28T02:52:26.686Z,34.10
2023-02-28T02:54:56.706Z,35.35
2023-02-28T02:57:56.922Z,37.33
2023-02-28T03:00:26.901Z,34.40
2023-02-28T03:02:55.038Z,36.22
2023-02-28T03:05:25.703Z,32.25
2023-02-28T03:10:43.915Z,38.90
2023-02-28T03:15:45.745Z,35.65
2023-02-28T03:18:19.938Z,35.30
2023-02-28T03:21:18.482Z,36.85
2023-02-28T03:24:07.337Z,35.30
2023-02-28T03:26:36.780Z,42.60
2023-02-28T03:29:06.446Z,40.63
2023-02-28T03:32:00.624Z,41.42
2023-02-28T03:34:31.494Z,41.03
2023-02-28T03:37:05.040Z,43.13
2023-02-28T03:39:39.126Z,40.20
2023-02-28T03:42:12.205Z,45.58
2023-02-28T03:44:39.434Z,46.50
2023-02-28T03:47:10.642Z,50.65
2023-02-28T03:49:44.636Z,47.47
2023-02-28T03:52:12.006Z,44.58
2023-02-28T03:54:44.704Z,42.30
2023-02-28T03:57:26.788Z,44.67
2023-02-28T04:00:20.467Z,42.90
2023-02-28T04:02:53.581Z,47.45
2023-02-28T04:05:24.571Z,42.17
2023-02-28T04:07:52.080Z,44.05
2023-02-28T04:10:19.716Z,42.67
2023-02-28T04:12:46.898Z,49.22
2023-02-28T04:15:14.517Z,43.92
2023-02-28T04:17:41.879Z,47.67
2023-02-28T04:20:13.636Z,55.78
2023-02-28T04:22:41.030Z,51.38
2023-02-28T04:25:08.553Z,48.47
2023-02-28T04:27:36.372Z,50.17
2023-02-28T04:30:03.519Z,48.45
2023-02-28T04:32:30.862Z,47.97
2023-02-28T04:35:02.130Z,45.65
2023-02-28T04:37:30.189Z,46.63
2023-02-28T04:39:59.022Z,43.30
2023-02-28T04:42:26.157Z,42.88
2023-02-28T04:44:54.979Z,47.30
2023-02-28T04:47:22.384Z,38.38
2023-02-28T04:49:49.801Z,47.33
2023-02-28T04:52:17.030Z,49.58
2023-02-28T04:54:44.128Z,54.20
2023-02-28T04:57:11.431Z,50.13
2023-02-28T04:59:38.726Z,50.78
2023-02-28T05:02:08.351Z,51.05
2023-02-28T05:04:38.020Z,46.70
2023-02-28T05:07:05.292Z,44.23
2023-02-28T05:09:33.925Z,43.72
2023-02-28T05:12:01.059Z,42.20
2023-02-28T05:14:28.181Z,40.45
2023-02-28T05:16:55.767Z,40.53
2023-02-28T05:19:22.884Z,39.85
2023-02-28T05:21:52.274Z,45.65
2023-02-28T05:24:28.569Z,40.90
2023-02-28T05:26:57.145Z,45.67
2023-02-28T05:29:24.415Z,53.47
2023-02-28T05:31:51.955Z,46.78
2023-02-28T05:34:21.304Z,49.80
2023-02-28T05:36:48.550Z,54.40
2023-02-28T05:39:15.894Z,51.10
2023-02-28T05:41:43.971Z,47.03
2023-02-28T05:44:11.607Z,43.63
2023-02-28T05:46:39.616Z,42.88
2023-02-28T05:49:07.231Z,45.83
2023-02-28T05:51:37.326Z,50.90
2023-02-28T05:54:05.156Z,46.70
2023-02-28T05:56:33.356Z,49.05
2023-02-28T05:59:00.500Z,51.03
2023-02-28T06:01:35.478Z,76.35
2023-02-28T06:04:03.204Z,80.90
2023-02-28T06:06:30.688Z,70.15
2023-02-28T06:08:58.227Z,73.10
2023-02-28T06:11:28.679Z,66.20
2023-02-28T06:13:57.513Z,57.28
2023-02-28T06:16:25.569Z,53.05
2023-02-28T06:18:53.703Z,60.83
2023-02-28T06:21:20.865Z,64.97
2023-02-28T06:23:48.102Z,60.95
2023-02-28T06:26:15.477Z,64.03
2023-02-28T06:28:42.627Z,64.68
2023-02-28T06:31:14.295Z,65.60
2023-02-28T06:33:42.494Z,70.00
2023-02-28T06:36:10.412Z,70.93
2023-02-28T06:38:38.316Z,68.93
2023-02-28T06:41:05.938Z,60.50
2023-02-28T06:43:36.594Z,55.00
2023-02-28T06:48:33.044Z,63.40
2023-02-28T06:51:15.743Z,51.00
2023-02-28T06:53:43.216Z,53.97
2023-02-28T06:56:11.785Z,46.03
2023-02-28T06:58:42.240Z,47.55
2023-02-28T07:01:13.321Z,45.20
2023-02-28T07:03:40.702Z,47.28
2023-02-28T07:06:07.946Z,47.45
2023-02-28T07:08:36.818Z,46.13
2023-02-28T07:11:04.593Z,43.17
2023-02-28T07:13:31.814Z,41.63
2023-02-28T07:16:00.490Z,41.13
2023-02-28T07:18:27.867Z,40.35
2023-02-28T07:20:55.264Z,42.22
2023-02-28T07:23:22.631Z,46.30
2023-02-28T07:25:50.584Z,46.85
2023-02-28T07:28:17.810Z,44.22
2023-02-28T07:30:45.111Z,41.50
2023-02-28T07:33:12.269Z,41.17
2023-02-28T07:35:39.493Z,38.72
2023-02-28T07:38:08.420Z,38.65
2023-02-28T07:40:36.481Z,36.95
2023-02-28T07:43:04.475Z,29.17
2023-02-28T07:45:32.801Z,30.25
2023-02-28T07:47:59.979Z,28.42
2023-02-28T07:50:28.666Z,35.38
2023-02-28T07:52:55.942Z,27.80
2023-02-28T07:55:23.282Z,31.73
2023-02-28T07:57:50.553Z,36.15
2023-02-28T08:00:17.868Z,31.70
2023-02-28T08:02:45.412Z,30.13
2023-02-28T08:05:12.580Z,27.60
2023-02-28T08:07:40.391Z,31.98
2023-02-28T08:10:07.834Z,33.42
2023-02-28T08:12:35.025Z,34.10
2023-02-28T08:15:02.278Z,33.83
2023-02-28T08:17:29.436Z,32.47
2023-02-28T08:19:56.733Z,35.83
2023-02-28T08:22:23.883Z,36.20
2023-02-28T08:24:51.148Z,33.80
2023-02-28T08:27:18.462Z,34.75
2023-02-28T08:29:45.638Z,27.73
2023-02-28T08:32:28.538Z,22.48
2023-02-28T08:34:56.922Z,24.17
2023-02-28T08:37:24.336Z,26.92
2023-02-28T08:39:52.819Z,24.40
2023-02-28T08:42:22.039Z,24.23
2023-02-28T08:44:49.254Z,24.95
2023-02-28T08:47:19.036Z,26.13
2023-02-28T08:49:46.214Z,21.77
2023-02-28T08:52:13.472Z,24.67
2023-02-28T08:54:40.783Z,25.83
2023-02-28T08:57:08.215Z,24.13
2023-02-28T08:59:35.381Z,26.20
2023-02-28T09:02:02.544Z,29.33
2023-02-28T09:04:31.966Z,29.00
2023-02-28T09:06:59.184Z,27.33
2023-02-28T09:09:26.364Z,23.25
2023-02-28T09:11:53.658Z,29.23
2023-02-28T09:14:20.878Z,27.05
2023-02-28T09:16:48.105Z,26.50
2023-02-28T09:19:15.692Z,25.48
2023-02-28T09:21:42.847Z,25.25
2023-02-28T09:24:10.049Z,26.98
2023-02-28T09:26:43.052Z,28.55
2023-02-28T09:29:15.510Z,29.52
2023-02-28T09:31:42.787Z,27.08
2023-02-28T09:34:10.270Z,26.08
2023-02-28T09:36:46.062Z,26.58
2023-02-28T09:39:16.243Z,24.55
2023-02-28T09:41:51.192Z,23.88
2023-02-28T09:44:21.871Z,23.08
2023-02-28T09:46:51.687Z,25.75
2023-02-28T09:49:21.313Z,22.13
2023-02-28T09:51:55.014Z,26.00
2023-02-28T09:54:26.731Z,27.15
2023-02-28T09:57:04.596Z,28.23
2023-02-28T09:59:40.749Z,37.53
2023-02-28T10:02:23.034Z,32.42
2023-02-28T10:04:55.428Z,27.98
2023-02-28T10:07:27.872Z,27.92
2023-02-28T10:09:57.204Z,27.70
2023-02-28T10:12:26.641Z,28.10
2023-02-28T10:14:54.688Z,26.90
2023-02-28T10:17:23.757Z,27.70
2023-02-28T10:19:50.902Z,29.88
2023-02-28T10:22:18.158Z,26.20
2023-02-28T10:24:47.192Z,27.83
2023-02-28T10:27:17.122Z,27.55
2023-02-28T10:29:45.359Z,24.63
2023-02-28T10:32:14.885Z,24.20
2023-02-28T10:34:42.194Z,29.17
2023-02-28T10:37:09.332Z,26.90
2023-02-28T10:39:37.433Z,28.55
2023-02-28T10:42:05.105Z,27.42
2023-02-28T10:44:32.294Z,28.63
2023-02-28T10:46:59.750Z,28.65
2023-02-28T10:49:30.313Z,24.67
2023-02-28T10:51:59.026Z,27.15
2023-02-28T10:54:29.397Z,27.23
2023-02-28T10:57:15.458Z,24.80
2023-02-28T10:59:42.750Z,26.17
2023-02-28T11:02:28.563Z,24.48
2023-02-28T11:04:57.020Z,25.40
2023-02-28T11:07:27.633Z,22.35
2023-02-28T11:09:56.398Z,22.75
2023-02-28T11:12:52.240Z,54.10
2023-02-28T11:15:32.323Z,24.70
2023-02-28T11:18:01.549Z,23.13
2023-02-28T11:20:31.418Z,20.77
2023-02-28T11:23:00.159Z,23.95
2023-02-28T11:25:28.996Z,24.30
2023-02-28T11:27:57.986Z,23.95
2023-02-28T11:30:34.997Z,23.77
2023-02-28T11:33:03.215Z,24.67
2023-02-28T11:35:35.562Z,27.70
2023-02-28T11:38:02.870Z,25.08
2023-02-28T11:40:32.948Z,24.98
2023-02-28T11:43:20.970Z,21.90
2023-02-28T11:46:07.221Z,23.33
2023-02-28T11:48:52.850Z,24.92
2023-02-28T11:51:19.983Z,25.35
2023-02-28T11:53:56.223Z,26.08
2023-02-28T11:56:34.013Z,23.88
2023-02-28T11:59:09.596Z,26.05
2023-02-28T12:01:36.748Z,25.38
2023-02-28T12:04:39.458Z,24.20
2023-02-28T12:07:21.288Z,26.27
2023-02-28T12:10:04.291Z,24.35
2023-02-28T12:12:54.855Z,25.88
2023-02-28T12:15:30.357Z,23.75
2023-02-28T12:18:11.697Z,22.80
2023-02-28T12:20:42.162Z,25.55
2023-02-28T12:23:11.367Z,29.48
2023-02-28T12:25:38.579Z,25.17
2023-02-28T12:28:06.556Z,22.63
2023-02-28T12:30:35.914Z,22.10
2023-02-28T12:33:10.491Z,27.83
2023-02-28T12:35:42.825Z,23.00
2023-02-28T12:38:23.476Z,24.75
2023-02-28T12:43:19.163Z,26.15
2023-02-28T12:46:00.544Z,22.77
2023-02-28T12:48:32.550Z,26.33
2023-02-28T12:51:03.411Z,21.73
2023-02-28T12:53:30.805Z,23.00
2023-02-28T12:56:16.861Z,23.35
2023-02-28T12:58:48.905Z,23.17
2023-02-28T13:01:33.041Z,25.15
2023-02-28T13:04:19.072Z,25.40
2023-02-28T13:06:58.812Z,20.45
2023-02-28T13:09:26.786Z,31.67
2023-02-28T13:11:55.192Z,23.38
2023-02-28T13:14:22.408Z,25.02
2023-02-28T13:17:00.998Z,21.40
2023-02-28T13:19:30.354Z,21.60
2023-02-28T13:21:58.830Z,18.48
2023-02-28T13:24:38.550Z,19.45
2023-02-28T13:27:25.664Z,23.27
2023-02-28T13:29:56.028Z,21.20
2023-02-28T13:32:34.269Z,24.75
2023-02-28T13:35:01.457Z,21.80
2023-02-28T13:37:31.572Z,21.92
2023-02-28T13:40:03.839Z,25.35
2023-02-28T13:42:38.448Z,23.90
2023-02-28T13:45:05.784Z,23.40
2023-02-28T13:47:47.989Z,23.90
2023-02-28T13:50:18.729Z,24.85
2023-02-28T13:52:49.798Z,25.42
2023-02-28T13:55:26.725Z,22.17
2023-02-28T13:58:03.825Z,21.15
2023-02-28T14:00:36.741Z,23.50
2023-02-28T14:03:20.213Z,24.35
2023-02-28T14:05:47.518Z,22.25
2023-02-28T14:08:18.619Z,24.88
2023-02-28T14:10:47.781Z,23.10
2023-02-28T14:13:27.093Z,25.55
2023-02-28T14:15:59.429Z,25.33
2023-02-28T14:18:28.889Z,23.73
2023-02-28T14:20:59.110Z,24.75
2023-02-28T14:23:46.173Z,22.40
2023-02-28T14:26:24.668Z,26.48
2023-02-28T14:28:54.980Z,23.80
2023-02-28T14:31:31.444Z,21.35
2023-02-28T14:34:05.916Z,25.02
2023-02-28T14:36:36.163Z,26.38
2023-02-28T14:39:09.458Z,24.50
2023-02-28T14:44:23.904Z,22.17
2023-02-28T14:46:52.453Z,29.52
2023-02-28T14:49:33.320Z,27.13
2023-02-28T14:52:10.749Z,33.50
2023-02-28T14:54:39.156Z,37.53
2023-02-28T14:57:06.799Z,28.30
2023-02-28T14:59:35.746Z,24.08
2023-02-28T15:02:25.185Z,33.95
2023-02-28T15:04:59.672Z,29.45
2023-02-28T15:07:30.128Z,23.88
2023-02-28T15:10:15.949Z,29.80
2023-02-28T15:12:44.571Z,24.08
2023-02-28T15:15:18.547Z,22.90
2023-02-28T15:17:52.085Z,24.40
2023-02-28T15:20:19.993Z,25.13
2023-02-28T15:22:48.770Z,25.85
2023-02-28T15:25:18.821Z,32.65
2023-02-28T15:27:48.599Z,31.88
2023-02-28T15:30:18.344Z,31.40
2023-02-28T15:32:46.659Z,30.90
2023-02-28T15:35:26.332Z,29.25
2023-02-28T15:37:53.693Z,30.35
2023-02-28T15:40:26.022Z,26.02
2023-02-28T15:43:06.168Z,24.88
2023-02-28T15:45:43.156Z,23.58
2023-02-28T15:48:21.186Z,32.45
2023-02-28T15:50:49.544Z,41.28
2023-02-28T15:53:23.060Z,44.03
2023-02-28T15:55:54.674Z,51.80
2023-02-28T15:58:23.399Z,77.32
2023-02-28T16:01:02.173Z,81.63
2023-02-28T16:03:36.064Z,82.07
2023-02-28T16:06:23.701Z,67.07
2023-02-28T16:08:52.438Z,56.60
2023-02-28T16:11:20.769Z,49.00
2023-02-28T16:13:48.269Z,49.08
2023-02-28T16:16:24.192Z,51.08
2023-02-28T16:18:52.169Z,57.47
2023-02-28T16:21:19.377Z,69.57
2023-02-28T16:23:46.648Z,74.88
2023-02-28T16:26:20.803Z,65.25
2023-02-28T16:28:48.568Z,67.03
2023-02-28T16:31:17.444Z,58.28
2023-02-28T16:33:46.189Z,55.35
2023-02-28T16:36:28.680Z,59.60
2023-02-28T16:38:56.302Z,57.45
2023-02-28T16:41:26.262Z,48.20
2023-02-28T16:43:55.500Z,49.70
2023-02-28T16:46:22.882Z,45.28
2023-02-28T16:48:52.432Z,53.33
2023-02-28T16:51:20.311Z,57.03
2023-02-28T16:53:47.743Z,53.65
2023-02-28T16:56:18.395Z,52.83
2023-02-28T17:01:13.055Z,56.38
2023-02-28T17:03:43.141Z,59.58
2023-02-28T17:06:23.335Z,61.13
2023-02-28T17:08:51.142Z,69.32
2023-02-28T17:11:18.937Z,72.10
2023-02-28T17:13:46.683Z,70.97
2023-02-28T17:16:43.352Z,67.40
2023-02-28T17:19:14.838Z,73.00
2023-02-28T17:21:43.082Z,73.40
2023-02-28T17:24:16.636Z,86.10
2023-02-28T17:26:46.719Z,88.97
2023-02-28T17:29:16.542Z,103.07
2023-02-28T17:31:43.853Z,102.65
2023-02-28T17:34:11.751Z,89.32
2023-02-28T17:36:39.275Z,91.90
2023-02-28T17:39:11.169Z,86.55
2023-02-28T17:41:38.517Z,96.28
2023-02-28T17:44:07.462Z,103.28
2023-02-28T17:46:35.906Z,92.05
2023-02-28T17:49:03.174Z,96.95
2023-02-28T17:51:30.532Z,91.90
2023-02-28T17:53:57.742Z,102.50
2023-02-28T17:56:29.538Z,98.53
2023-02-28T17:58:57.650Z,108.63
2023-02-28T18:01:29.183Z,126.10
2023-02-28T18:03:56.882Z,123.47
2023-02-28T18:06:25.961Z,125.82
2023-02-28T18:08:53.494Z,136.02
2023-02-28T18:11:21.565Z,148.52
2023-02-28T18:13:51.192Z,143.60
2023-02-28T18:16:18.964Z,137.60
2023-02-28T18:18:46.529Z,132.43
2023-02-28T18:21:15.181Z,141.85
2023-02-28T18:23:48.184Z,135.85
2023-02-28T18:26:16.027Z,140.32
2023-02-28T18:28:44.731Z,145.48
2023-02-28T18:31:13.649Z,131.98
2023-02-28T18:33:40.991Z,133.95
2023-02-28T18:36:08.478Z,124.47
2023-02-28T18:38:35.823Z,130.23
2023-02-28T18:41:04.542Z,134.73
2023-02-28T18:43:34.081Z,126.72
2023-02-28T18:46:05.688Z,129.48
2023-02-28T18:48:33.555Z,122.20
2023-02-28T18:51:07.646Z,128.65
2023-02-28T18:53:35.796Z,138.43
2023-02-28T18:56:06.605Z,133.00
2023-02-28T18:58:34.216Z,134.27
2023-02-28T19:01:02.587Z,134.90
2023-02-28T19:03:29.877Z,132.68
2023-02-28T19:06:01.275Z,142.05
2023-02-28T19:08:28.493Z,136.15
2023-02-28T19:10:55.562Z,144.95
2023-02-28T19:13:22.881Z,157.95
2023-02-28T19:15:51.813Z,169.02
2023-02-28T19:18:21.105Z,194.90
2023-02-28T19:20:48.463Z,212.38
2023-02-28T19:23:15.827Z,243.32
2023-02-28T19:25:43.268Z,289.55
2023-02-28T19:28:11.323Z,304.23
2023-02-28T19:30:38.699Z,322.08
2023-02-28T19:33:05.969Z,341.38
2023-02-28T19:35:35.678Z,355.35
2023-02-28T19:38:02.947Z,363.20
2023-02-28T19:40:35.601Z,353.33
2023-02-28T19:46:40.552Z,292.05
2023-02-28T19:49:08.997Z,264.35
2023-02-28T19:51:50.088Z,250.20
2023-02-28T19:54:17.613Z,244.63
2023-02-28T19:56:46.553Z,220.45
2023-02-28T19:59:21.228Z,219.88
2023-02-28T20:01:49.680Z,215.13
2023-02-28T20:04:17.031Z,203.07
2023-02-28T20:06:44.264Z,207.63
2023-02-28T20:09:11.456Z,190.57
2023-02-28T20:11:39.378Z,199.80
2023-02-28T20:14:06.528Z,182.18
2023-02-28T20:16:33.783Z,174.23
2023-02-28T20:19:01.238Z,170.77
2023-02-28T20:21:28.419Z,169.05
2023-02-28T20:23:55.635Z,159.60
2023-02-28T20:26:22.984Z,168.10
2023-02-28T20:28:50.671Z,154.98
2023-02-28T20:31:19.628Z,158.80
2023-02-28T20:33:47.568Z,167.63
2023-02-28T20:36:15.927Z,172.68
2023-02-28T20:38:43.914Z,168.02
2023-02-28T20:41:12.121Z,150.48
2023-02-28T20:43:40.362Z,166.13
2023-02-28T20:46:07.685Z,153.82
2023-02-28T20:48:38.357Z,165.15
2023-02-28T20:51:06.074Z,161.55
2023-02-28T20:53:34.137Z,163.40
2023-02-28T20:56:02.547Z,157.85
2023-02-28T20:58:31.046Z,156.85
2023-02-28T21:01:04.605Z,175.32
2023-02-28T21:03:32.071Z,162.88
2023-02-28T21:06:03.226Z,186.45
2023-02-28T21:08:30.738Z,183.32
2023-02-28T21:11:00.057Z,182.88
2023-02-28T21:13:27.318Z,190.63
2023-02-28T21:15:54.925Z,194.73
2023-02-28T21:18:22.371Z,184.60
2023-02-28T21:20:51.065Z,189.48
2023-02-28T21:23:18.470Z,195.85
2023-02-28T21:25:45.786Z,187.30
2023-02-28T21:28:13.218Z,182.68
2023-02-28T21:30:40.508Z,194.93
2023-02-28T21:33:08.153Z,187.38
2023-02-28T21:35:35.309Z,199.00
2023-02-28T21:38:02.450Z,201.32
2023-02-28T21:40:29.658Z,199.15
2023-02-28T21:42:57.012Z,213.63
2023-02-28T21:45:24.241Z,239.00
2023-02-28T21:47:51.337Z,250.48
2023-02-28T21:50:18.545Z,243.43
2023-02-28T21:52:47.505Z,235.70
2023-02-28T21:55:15.713Z,260.35
2023-02-28T21:57:46.026Z,268.38
2023-02-28T22:02:42.804Z,261.42
2023-02-28T22:05:10.115Z,265.88
2023-02-28T22:07:42.461Z,272.73
2023-02-28T22:10:11.390Z,260.92
2023-02-28T22:12:39.085Z,259.83
2023-02-28T22:15:06.535Z,269.63
2023-02-28T22:17:34.370Z,267.20
2023-02-28T22:20:01.717Z,271.30
2023-02-28T22:22:31.041Z,257.73
2023-02-28T22:24:58.353Z,260.98
2023-02-28T22:27:25.612Z,252.75
2023-02-28T22:29:57.873Z,271.90
2023-02-28T22:32:25.198Z,283.73
2023-02-28T22:34:52.652Z,294.60
2023-02-28T22:37:19.809Z,289.45
2023-02-28T22:39:47.663Z,322.25
2023-02-28T22:42:14.793Z,324.05
2023-02-28T22:44:43.288Z,283.42
2023-02-28T22:47:10.468Z,295.88
2023-02-28T22:49:37.911Z,319.08
2023-02-28T22:52:05.301Z,304.65
2023-02-28T22:54:32.405Z,315.08
2023-02-28T22:56:59.608Z,319.80
2023-02-28T22:59:26.970Z,305.58
2023-02-28T23:01:54.159Z,317.15
2023-02-28T23:04:25.690Z,338.73
2023-02-28T23:06:52.947Z,317.80
2023-02-28T23:09:23.334Z,321.02
2023-02-28T23:11:51.990Z,317.45
2023-02-28T23:14:19.685Z,323.35
2023-02-28T23:16:50.967Z,324.30
2023-02-28T23:19:20.007Z,317.73
2023-02-28T23:21:47.612Z,306.65
2023-02-28T23:24:15.761Z,316.67
2023-02-28T23:26:44.676Z,316.30
2023-02-28T23:29:12.913Z,322.67
2023-02-28T23:31:40.292Z,304.83
2023-02-28T23:34:07.861Z,299.10
2023-02-28T23:36:35.013Z,289.75
2023-02-28T23:39:04.199Z,283.63
2023-02-28T23:41:32.808Z,261.52
2023-02-28T23:44:00.150Z,248.38
2023-02-28T23:46:27.284Z,240.07
2023-02-28T23:48:54.438Z,239.93
2023-02-28T23:51:22.701Z,229.43
2023-02-28T23:53:51.136Z,243.32
2023-02-28T23:56:19.570Z,226.35
2023-02-28T23:58:50.157Z,246.80
